createdAt,value
2017-08-25T00:00:38.366Z,9.90
2017-08-25T00:03:05.968Z,10.33
2017-08-25T00:05:34.385Z,20.70
2017-08-25T00:08:02.073Z,6.40
2017-08-25T00:10:29.732Z,8.80
2017-08-25T00:12:57.337Z,7.10
2017-08-25T00:15:24.964Z,11.30
2017-08-25T00:17:52.539Z,9.77
2017-08-25T00:20:20.121Z,8.80
2017-08-25T00:22:47.729Z,9.87
2017-08-25T00:25:15.304Z,12.10
2017-08-25T00:27:42.908Z,14.30
2017-08-25T00:30:10.510Z,7.47
2017-08-25T00:32:38.110Z,9.23
2017-08-25T00:35:05.772Z,11.73
2017-08-25T00:37:33.389Z,9.80
2017-08-25T00:40:00.966Z,6.90
2017-08-25T00:42:29.470Z,8.30
2017-08-25T00:44:57.146Z,14.37
2017-08-25T00:47:25.727Z,9.90
2017-08-25T00:49:53.352Z,8.57
2017-08-25T00:52:21.764Z,10.83
2017-08-25T00:54:50.254Z,12.40
2017-08-25T00:57:18.803Z,8.70
2017-08-25T00:59:46.439Z,7.67
2017-08-25T01:02:14.035Z,10.60
2017-08-25T01:04:41.674Z,12.10
2017-08-25T01:07:09.281Z,8.87
2017-08-25T01:09:36.901Z,13.33
2017-08-25T01:12:04.486Z,8.47
2017-08-25T01:14:32.147Z,10.13
2017-08-25T01:16:59.745Z,11.30
2017-08-25T01:19:27.390Z,9.37
2017-08-25T01:21:55.011Z,10.40
2017-08-25T01:24:22.623Z,10.60
2017-08-25T01:26:50.261Z,10.43
2017-08-25T01:29:18.110Z,10.10
2017-08-25T01:31:45.709Z,11.27
2017-08-25T01:34:13.329Z,10.17
2017-08-25T01:36:40.983Z,14.67
2017-08-25T01:39:08.632Z,11.63
2017-08-25T01:41:36.251Z,14.13
2017-08-25T01:44:04.023Z,13.77
2017-08-25T01:46:31.615Z,15.03
2017-08-25T01:48:59.222Z,13.47
2017-08-25T01:51:26.832Z,17.23
2017-08-25T01:53:54.493Z,13.70
2017-08-25T01:56:22.089Z,14.73
2017-08-25T01:58:49.746Z,10.07
2017-08-25T02:01:17.361Z,10.13
2017-08-25T02:03:44.978Z,11.03
2017-08-25T02:06:12.631Z,17.03
2017-08-25T02:08:40.239Z,20.07
2017-08-25T02:11:07.858Z,12.13
2017-08-25T02:13:35.501Z,12.93
2017-08-25T02:16:03.094Z,22.53
2017-08-25T02:18:30.715Z,13.33
2017-08-25T02:20:58.341Z,9.80
2017-08-25T02:23:26.063Z,13.47
2017-08-25T02:25:53.753Z,12.83
2017-08-25T02:28:21.400Z,9.97
2017-08-25T02:30:49.025Z,9.57
2017-08-25T02:33:16.610Z,8.90
2017-08-25T02:35:44.237Z,9.20
2017-08-25T02:38:11.826Z,14.57
2017-08-25T02:40:39.395Z,16.17
2017-08-25T02:43:07.018Z,9.50
2017-08-25T02:45:34.580Z,19.80
2017-08-25T02:48:02.148Z,16.33
2017-08-25T02:50:29.752Z,10.47
2017-08-25T02:52:57.350Z,13.47
2017-08-25T02:55:24.984Z,10.23
2017-08-25T02:57:53.523Z,13.23
2017-08-25T03:00:21.118Z,16.93
2017-08-25T03:02:48.749Z,11.33
2017-08-25T03:05:16.429Z,9.97
2017-08-25T03:07:44.024Z,10.40
2017-08-25T03:10:11.640Z,13.70
2017-08-25T03:12:39.233Z,12.53
2017-08-25T03:15:06.784Z,10.40
2017-08-25T03:17:34.389Z,10.40
2017-08-25T03:20:02.031Z,13.03
2017-08-25T03:22:29.667Z,13.33
2017-08-25T03:24:57.288Z,8.70
2017-08-25T03:27:24.909Z,11.63
2017-08-25T03:29:52.500Z,14.60
2017-08-25T03:32:20.120Z,10.80
2017-08-25T03:34:48.496Z,9.90
2017-08-25T03:37:16.156Z,19.00
2017-08-25T03:39:43.772Z,13.37
2017-08-25T03:42:11.397Z,11.00
2017-08-25T03:44:39.020Z,13.17
2017-08-25T03:47:06.637Z,12.30
2017-08-25T03:49:34.262Z,14.10
2017-08-25T03:52:01.912Z,12.80
2017-08-25T03:54:29.543Z,10.50
2017-08-25T03:56:57.257Z,13.43
2017-08-25T03:59:24.866Z,12.83
2017-08-25T04:01:52.426Z,9.73
2017-08-25T04:04:20.034Z,10.37
2017-08-25T04:06:47.645Z,9.97
2017-08-25T04:09:15.229Z,13.87
2017-08-25T04:11:42.933Z,14.07
2017-08-25T04:14:10.504Z,13.67
2017-08-25T04:16:38.093Z,16.23
2017-08-25T04:19:05.735Z,15.37
2017-08-25T04:21:33.338Z,12.83
2017-08-25T04:24:00.941Z,10.93
2017-08-25T04:26:28.677Z,12.63
2017-08-25T04:28:56.305Z,20.90
2017-08-25T04:31:23.929Z,13.40
2017-08-25T04:33:52.132Z,12.90
2017-08-25T04:36:19.754Z,16.40
2017-08-25T04:38:47.376Z,16.80
2017-08-25T04:41:15.904Z,11.43
2017-08-25T04:43:43.490Z,12.83
2017-08-25T04:46:11.098Z,11.53
2017-08-25T04:48:38.730Z,16.33
2017-08-25T04:51:06.352Z,18.67
2017-08-25T04:53:33.934Z,17.20
2017-08-25T04:56:01.576Z,17.47
2017-08-25T04:58:29.194Z,23.57
2017-08-25T05:00:56.800Z,19.27
2017-08-25T05:03:24.459Z,22.93
2017-08-25T05:05:52.059Z,15.50
2017-08-25T05:08:19.664Z,16.47
2017-08-25T05:10:47.343Z,17.20
2017-08-25T05:13:14.920Z,19.67
2017-08-25T05:15:42.482Z,16.53
2017-08-25T05:18:10.122Z,15.10
2017-08-25T05:20:37.705Z,11.10
2017-08-25T05:23:05.304Z,20.80
2017-08-25T05:25:32.922Z,12.13
2017-08-25T05:28:00.505Z,16.37
2017-08-25T05:30:28.074Z,17.40
2017-08-25T05:32:55.732Z,19.60
2017-08-25T05:35:23.342Z,14.70
2017-08-25T05:37:50.988Z,13.77
2017-08-25T05:40:18.674Z,13.77
2017-08-25T05:42:46.414Z,13.30
2017-08-25T05:45:14.008Z,18.03
2017-08-25T05:47:41.629Z,14.80
2017-08-25T05:50:09.294Z,13.80
2017-08-25T05:52:36.915Z,16.00
2017-08-25T05:55:04.548Z,19.23
2017-08-25T05:57:32.189Z,16.70
2017-08-25T05:59:59.766Z,20.13
2017-08-25T06:02:28.883Z,15.33
2017-08-25T06:04:56.527Z,23.73
2017-08-25T06:07:24.092Z,13.30
2017-08-25T06:09:51.703Z,18.80
2017-08-25T06:12:19.352Z,17.20
2017-08-25T06:14:46.981Z,20.53
2017-08-25T06:17:14.583Z,9.87
2017-08-25T06:19:42.175Z,17.40
2017-08-25T06:22:09.798Z,10.93
2017-08-25T06:24:37.465Z,12.00
2017-08-25T06:27:05.129Z,10.60
2017-08-25T06:29:32.829Z,12.00
2017-08-25T06:32:00.445Z,17.13
2017-08-25T06:34:28.067Z,16.77
2017-08-25T06:36:55.637Z,13.50
2017-08-25T06:39:23.578Z,14.13
2017-08-25T06:41:51.206Z,14.37
2017-08-25T06:44:18.836Z,18.47
2017-08-25T06:46:46.486Z,16.53
2017-08-25T06:49:14.127Z,12.03
2017-08-25T06:51:41.728Z,11.90
2017-08-25T06:54:09.504Z,17.63
2017-08-25T06:56:37.152Z,10.53
2017-08-25T06:59:04.776Z,23.90
2017-08-25T07:01:32.464Z,19.93
2017-08-25T07:04:00.101Z,11.20
2017-08-25T07:06:27.724Z,13.60
2017-08-25T07:08:55.377Z,12.43
2017-08-25T07:11:22.975Z,16.37
2017-08-25T07:13:50.707Z,13.07
2017-08-25T07:16:18.338Z,15.07
2017-08-25T07:18:45.944Z,14.27
2017-08-25T07:21:13.580Z,14.07
2017-08-25T07:23:41.261Z,12.30
2017-08-25T07:26:08.825Z,10.20
2017-08-25T07:28:36.477Z,13.93
2017-08-25T07:31:04.353Z,14.73
2017-08-25T07:33:31.954Z,11.50
2017-08-25T07:35:59.528Z,10.60
2017-08-25T07:38:27.164Z,13.67
2017-08-25T07:40:54.802Z,9.93
2017-08-25T07:43:22.425Z,10.20
2017-08-25T07:45:50.037Z,12.73
2017-08-25T07:48:17.653Z,15.13
2017-08-25T07:50:45.749Z,11.93
2017-08-25T07:53:13.360Z,14.50
2017-08-25T07:55:40.958Z,9.37
2017-08-25T07:58:08.569Z,15.60
2017-08-25T08:00:36.222Z,16.53
2017-08-25T08:03:03.799Z,13.20
2017-08-25T08:05:31.395Z,9.87
2017-08-25T08:07:59.076Z,12.10
2017-08-25T08:10:26.684Z,8.93
2017-08-25T08:12:54.299Z,10.03
2017-08-25T08:15:21.909Z,8.20
2017-08-25T08:17:49.503Z,10.53
2017-08-25T08:20:17.130Z,6.20
2017-08-25T08:22:44.767Z,4.57
2017-08-25T08:25:12.376Z,7.30
2017-08-25T08:27:40.692Z,8.40
2017-08-25T08:30:09.244Z,8.13
2017-08-25T08:32:36.876Z,6.40
2017-08-25T08:35:04.495Z,7.73
2017-08-25T08:37:32.098Z,4.73
2017-08-25T08:39:59.706Z,6.60
2017-08-25T08:42:27.284Z,7.37
2017-08-25T08:44:54.900Z,6.73
2017-08-25T08:47:22.521Z,7.10
2017-08-25T08:49:50.094Z,4.97
2017-08-25T08:52:17.707Z,4.83
2017-08-25T08:54:45.321Z,10.93
2017-08-25T08:57:12.952Z,6.40
2017-08-25T08:59:40.541Z,5.20
2017-08-25T09:02:08.106Z,11.07
2017-08-25T09:04:36.656Z,7.30
2017-08-25T09:07:04.339Z,6.43
2017-08-25T09:09:31.948Z,12.80
2017-08-25T09:11:59.532Z,4.97
2017-08-25T09:14:27.172Z,4.40
2017-08-25T09:16:54.802Z,5.30
2017-08-25T09:19:22.381Z,11.20
2017-08-25T09:21:50.001Z,6.90
2017-08-25T09:24:17.600Z,9.30
2017-08-25T09:26:45.255Z,5.83
2017-08-25T09:29:12.860Z,6.83
2017-08-25T09:31:40.431Z,5.07
2017-08-25T09:34:09.039Z,6.20
2017-08-25T09:36:37.500Z,14.20
2017-08-25T09:39:05.102Z,6.73
2017-08-25T09:41:32.702Z,5.67
2017-08-25T09:44:00.314Z,8.50
2017-08-25T09:46:27.959Z,6.30
2017-08-25T09:48:55.521Z,6.57
2017-08-25T09:51:23.176Z,9.70
2017-08-25T09:53:50.739Z,7.20
2017-08-25T09:56:18.337Z,13.37
2017-08-25T09:58:45.981Z,6.37
2017-08-25T10:01:13.586Z,12.00
2017-08-25T10:03:41.163Z,9.80
2017-08-25T10:06:08.751Z,7.33
2017-08-25T10:08:36.357Z,14.83
2017-08-25T10:11:03.968Z,11.30
2017-08-25T10:13:31.593Z,14.10
2017-08-25T10:15:59.162Z,6.87
2017-08-25T10:18:26.778Z,8.97
2017-08-25T10:20:54.379Z,11.00
2017-08-25T10:23:21.989Z,11.60
2017-08-25T10:25:49.607Z,12.07
2017-08-25T10:28:17.190Z,7.80
2017-08-25T10:30:44.850Z,9.47
2017-08-25T10:33:24.292Z,7.33
2017-08-25T10:36:03.623Z,4.50
2017-08-25T10:41:38.998Z,5.27
2017-08-25T10:44:18.422Z,7.17
2017-08-25T10:46:46.010Z,5.43
2017-08-25T10:49:13.603Z,4.67
2017-08-25T10:51:41.233Z,10.50
2017-08-25T10:54:08.824Z,7.27
2017-08-25T10:56:36.426Z,6.57
2017-08-25T10:59:04.036Z,3.73
2017-08-25T11:01:31.693Z,13.00
2017-08-25T11:03:59.281Z,4.53
2017-08-25T11:06:26.938Z,5.20
2017-08-25T11:08:55.204Z,11.53
2017-08-25T11:11:23.081Z,6.40
2017-08-25T11:13:50.710Z,8.03
2017-08-25T11:16:18.280Z,8.13
2017-08-25T11:18:45.865Z,5.13
2017-08-25T11:21:13.512Z,7.93
2017-08-25T11:23:41.218Z,10.40
2017-08-25T11:26:08.828Z,6.73
2017-08-25T11:28:36.498Z,6.30
2017-08-25T11:31:04.109Z,7.53
2017-08-25T11:33:31.660Z,6.70
2017-08-25T11:35:59.289Z,9.50
2017-08-25T11:38:26.874Z,6.47
2017-08-25T11:40:54.885Z,3.20
2017-08-25T11:43:22.465Z,9.00
2017-08-25T11:45:50.819Z,12.33
2017-08-25T11:48:19.195Z,5.43
2017-08-25T11:50:47.688Z,5.07
2017-08-25T11:53:15.316Z,7.90
2017-08-25T11:55:42.946Z,8.20
2017-08-25T11:58:10.920Z,5.30
2017-08-25T12:00:38.516Z,9.23
2017-08-25T12:03:06.070Z,5.97
2017-08-25T12:05:33.749Z,8.47
2017-08-25T12:08:01.332Z,16.53
2017-08-25T12:10:28.926Z,15.27
2017-08-25T12:12:56.525Z,8.07
2017-08-25T12:15:24.115Z,6.67
2017-08-25T12:17:51.735Z,7.97
2017-08-25T12:20:19.314Z,4.90
2017-08-25T12:22:46.915Z,6.43
2017-08-25T12:25:14.540Z,8.80
2017-08-25T12:27:42.136Z,6.97
2017-08-25T12:30:09.740Z,5.97
2017-08-25T12:32:37.333Z,5.53
2017-08-25T12:35:04.928Z,9.67
2017-08-25T12:37:32.558Z,9.53
2017-08-25T12:40:00.165Z,8.50
2017-08-25T12:42:27.785Z,5.30
2017-08-25T12:44:55.463Z,8.57
2017-08-25T12:47:23.364Z,11.27
2017-08-25T12:49:50.981Z,5.30
2017-08-25T12:52:18.593Z,6.00
2017-08-25T12:54:46.177Z,6.03
2017-08-25T12:57:13.823Z,4.67
2017-08-25T12:59:41.444Z,5.13
2017-08-25T13:02:09.293Z,3.83
2017-08-25T13:04:37.242Z,4.67
2017-08-25T13:07:04.828Z,5.53
2017-08-25T13:09:32.435Z,7.57
2017-08-25T13:12:00.093Z,7.00
2017-08-25T13:14:27.693Z,5.10
2017-08-25T13:16:55.276Z,11.10
2017-08-25T13:19:22.922Z,6.43
2017-08-25T13:21:50.525Z,8.20
2017-08-25T13:24:18.148Z,14.80
2017-08-25T13:26:45.780Z,6.00
2017-08-25T13:29:13.358Z,4.40
2017-08-25T13:31:40.950Z,12.30
2017-08-25T13:34:08.545Z,6.97
2017-08-25T13:36:36.154Z,8.93
2017-08-25T13:39:03.745Z,7.47
2017-08-25T13:41:31.344Z,4.03
2017-08-25T13:43:58.947Z,6.17
2017-08-25T13:46:26.608Z,6.63
2017-08-25T13:48:54.500Z,4.90
2017-08-25T13:51:22.087Z,7.53
2017-08-25T13:53:49.645Z,6.00
2017-08-25T13:56:17.266Z,6.10
2017-08-25T13:58:44.868Z,5.30
2017-08-25T14:01:12.487Z,6.20
2017-08-25T14:03:40.100Z,4.23
2017-08-25T14:06:07.681Z,6.90
2017-08-25T14:08:35.317Z,4.13
2017-08-25T14:11:02.965Z,3.77
2017-08-25T14:13:30.591Z,9.57
2017-08-25T14:15:58.181Z,9.33
2017-08-25T14:18:25.758Z,6.00
2017-08-25T14:20:53.362Z,9.17
2017-08-25T14:23:20.990Z,4.07
2017-08-25T14:25:48.540Z,5.27
2017-08-25T14:28:16.142Z,8.07
2017-08-25T14:30:43.730Z,7.20
2017-08-25T14:33:11.298Z,4.93
2017-08-25T14:35:38.884Z,4.77
2017-08-25T14:38:06.460Z,4.37
2017-08-25T14:40:34.032Z,7.33
2017-08-25T14:43:01.637Z,5.40
2017-08-25T14:48:03.207Z,3.20
2017-08-25T14:53:05.487Z,3.97
2017-08-25T14:55:33.049Z,6.83
2017-08-25T14:58:00.644Z,4.90
2017-08-25T15:00:28.272Z,9.83
2017-08-25T15:02:55.836Z,6.10
2017-08-25T15:05:23.434Z,3.93
2017-08-25T15:07:51.065Z,4.70
2017-08-25T15:10:18.703Z,4.60
2017-08-25T15:12:46.316Z,4.90
2017-08-25T15:15:13.873Z,4.47
2017-08-25T15:17:41.459Z,5.83
2017-08-25T15:20:09.638Z,5.47
2017-08-25T15:22:37.239Z,4.50
2017-08-25T15:25:04.821Z,6.33
2017-08-25T15:27:32.419Z,5.43
2017-08-25T15:30:00.002Z,9.03
2017-08-25T15:32:27.606Z,6.80
2017-08-25T15:34:55.197Z,7.43
2017-08-25T15:37:22.773Z,4.33
2017-08-25T15:39:50.406Z,5.70
2017-08-25T15:42:17.988Z,3.80
2017-08-25T15:44:45.568Z,5.70
2017-08-25T15:47:13.215Z,6.63
2017-08-25T15:49:40.789Z,8.50
2017-08-25T15:52:08.370Z,4.73
2017-08-25T15:54:35.961Z,5.13
2017-08-25T15:57:03.602Z,3.83
2017-08-25T15:59:31.181Z,6.03
2017-08-25T16:01:58.783Z,8.43
2017-08-25T16:04:26.436Z,4.63
2017-08-25T16:06:54.020Z,8.00
2017-08-25T16:09:21.607Z,4.80
2017-08-25T16:11:49.267Z,2.60
2017-08-25T16:14:16.986Z,5.40
2017-08-25T16:16:44.615Z,3.33
2017-08-25T16:19:13.169Z,7.20
2017-08-25T16:21:40.765Z,4.70
2017-08-25T16:24:08.354Z,5.17
2017-08-25T16:26:36.210Z,5.70
2017-08-25T16:29:03.809Z,4.80
2017-08-25T16:31:31.426Z,5.27
2017-08-25T16:33:59.080Z,7.20
2017-08-25T16:36:26.673Z,3.20
2017-08-25T16:38:54.258Z,4.63
2017-08-25T16:41:21.887Z,5.83
2017-08-25T16:43:49.482Z,7.70
2017-08-25T16:46:17.066Z,5.40
2017-08-25T16:48:44.664Z,4.03
2017-08-25T16:51:12.287Z,5.20
2017-08-25T16:53:39.880Z,5.20
2017-08-25T16:56:07.503Z,5.20
2017-08-25T16:58:35.192Z,4.80
2017-08-25T17:01:02.810Z,2.53
2017-08-25T17:03:30.442Z,3.80
2017-08-25T17:05:58.102Z,9.07
2017-08-25T17:08:25.742Z,7.43
2017-08-25T17:10:54.037Z,4.67
2017-08-25T17:13:21.965Z,6.43
2017-08-25T17:15:49.534Z,12.10
2017-08-25T17:18:17.198Z,5.27
2017-08-25T17:20:44.811Z,4.10
2017-08-25T17:23:12.433Z,3.80
2017-08-25T17:25:40.053Z,4.20
2017-08-25T17:28:07.692Z,4.60
2017-08-25T17:30:35.375Z,7.23
2017-08-25T17:33:02.981Z,2.53
2017-08-25T17:35:30.572Z,11.20
2017-08-25T17:37:58.200Z,6.50
2017-08-25T17:40:25.796Z,8.10
2017-08-25T17:42:53.422Z,8.73
2017-08-25T17:45:21.007Z,5.00
2017-08-25T17:47:48.863Z,3.90
2017-08-25T17:50:16.475Z,5.17
2017-08-25T17:52:44.158Z,4.27
2017-08-25T17:55:11.717Z,3.47
2017-08-25T17:57:39.309Z,4.03
2017-08-25T18:00:06.937Z,5.40
2017-08-25T18:02:34.564Z,4.70
2017-08-25T18:05:02.123Z,4.27
2017-08-25T18:07:29.717Z,3.60
2017-08-25T18:09:57.301Z,3.83
2017-08-25T18:12:24.898Z,5.90
2017-08-25T18:14:52.577Z,7.10
2017-08-25T18:17:20.212Z,5.33
2017-08-25T18:19:47.860Z,5.07
2017-08-25T18:22:15.501Z,4.27
2017-08-25T18:24:43.065Z,13.03
2017-08-25T18:27:10.752Z,12.60
2017-08-25T18:29:38.384Z,6.10
2017-08-25T18:32:05.971Z,7.93
2017-08-25T18:34:33.608Z,4.83
2017-08-25T18:37:01.975Z,7.57
2017-08-25T18:39:29.607Z,8.63
2017-08-25T18:41:57.177Z,11.23
2017-08-25T18:44:24.753Z,5.97
2017-08-25T18:46:52.381Z,4.03
2017-08-25T18:49:19.994Z,6.10
2017-08-25T18:51:48.498Z,5.87
2017-08-25T18:54:16.144Z,7.03
2017-08-25T18:56:43.803Z,4.93
2017-08-25T18:59:11.397Z,5.77
2017-08-25T19:01:39.029Z,5.23
2017-08-25T19:04:06.656Z,4.53
2017-08-25T19:06:34.263Z,7.70
2017-08-25T19:09:01.908Z,5.20
2017-08-25T19:11:30.510Z,4.90
2017-08-25T19:13:58.121Z,9.63
2017-08-25T19:16:25.710Z,7.30
2017-08-25T19:18:53.437Z,8.67
2017-08-25T19:21:21.034Z,14.30
2017-08-25T19:23:48.620Z,4.47
2017-08-25T19:26:16.243Z,4.83
2017-08-25T19:28:43.929Z,7.10
2017-08-25T19:31:11.549Z,5.43
2017-08-25T19:33:39.167Z,9.50
2017-08-25T19:36:06.763Z,5.97
2017-08-25T19:38:34.410Z,8.57
2017-08-25T19:41:02.062Z,6.27
2017-08-25T19:43:29.714Z,4.53
2017-08-25T19:45:57.376Z,5.07
2017-08-25T19:48:24.957Z,5.80
2017-08-25T19:50:52.571Z,3.53
2017-08-25T19:53:20.217Z,6.67
2017-08-25T19:55:47.836Z,7.03
2017-08-25T19:58:15.446Z,6.10
2017-08-25T20:00:43.100Z,6.00
2017-08-25T20:03:11.434Z,14.20
2017-08-25T20:05:39.048Z,4.80
2017-08-25T20:08:06.727Z,6.17
2017-08-25T20:10:34.333Z,6.70
2017-08-25T20:13:01.913Z,5.17
2017-08-25T20:15:29.509Z,7.40
2017-08-25T20:17:57.123Z,4.40
2017-08-25T20:20:25.183Z,5.27
2017-08-25T20:22:52.783Z,13.33
2017-08-25T20:25:20.363Z,6.90
2017-08-25T20:27:47.962Z,8.40
2017-08-25T20:30:15.570Z,6.10
2017-08-25T20:32:43.274Z,7.33
2017-08-25T20:35:11.601Z,10.13
2017-08-25T20:37:39.217Z,10.00
2017-08-25T20:40:06.852Z,10.80
2017-08-25T20:42:34.754Z,7.50
2017-08-25T20:45:02.412Z,18.40
2017-08-25T20:47:30.035Z,15.87
2017-08-25T20:49:57.681Z,6.90
2017-08-25T20:52:25.300Z,6.70
2017-08-25T20:54:52.943Z,8.70
2017-08-25T20:57:20.756Z,9.40
2017-08-25T20:59:48.366Z,10.13
2017-08-25T21:02:15.976Z,6.97
2017-08-25T21:04:43.623Z,8.47
2017-08-25T21:07:11.241Z,8.27
2017-08-25T21:09:38.838Z,9.00
2017-08-25T21:12:06.431Z,6.93
2017-08-25T21:14:34.375Z,7.23
2017-08-25T21:17:01.987Z,8.73
2017-08-25T21:19:29.618Z,9.77
2017-08-25T21:21:57.181Z,9.30
2017-08-25T21:24:24.833Z,10.93
2017-08-25T21:26:52.471Z,9.40
2017-08-25T21:29:20.062Z,8.93
2017-08-25T21:31:47.677Z,9.20
2017-08-25T21:34:15.274Z,8.00
2017-08-25T21:36:42.882Z,5.57
2017-08-25T21:39:10.472Z,6.17
2017-08-25T21:41:38.139Z,8.30
2017-08-25T21:44:05.761Z,7.80
2017-08-25T21:46:33.379Z,10.03
2017-08-25T21:49:01.018Z,9.23
2017-08-25T21:51:28.630Z,5.83
2017-08-25T21:53:56.237Z,7.20
2017-08-25T21:56:23.913Z,8.03
2017-08-25T21:58:51.479Z,7.47
2017-08-25T22:01:19.050Z,8.87
2017-08-25T22:03:46.656Z,7.47
2017-08-25T22:06:14.298Z,6.70
2017-08-25T22:08:41.959Z,8.67
2017-08-25T22:11:10.240Z,7.23
2017-08-25T22:13:37.901Z,5.60
2017-08-25T22:16:05.761Z,7.83
2017-08-25T22:18:33.417Z,8.90
2017-08-25T22:21:01.018Z,5.43
2017-08-25T22:23:28.645Z,6.60
2017-08-25T22:25:56.279Z,8.70
2017-08-25T22:28:23.865Z,8.13
2017-08-25T22:30:51.556Z,7.40
2017-08-25T22:33:19.170Z,8.43
2017-08-25T22:35:46.826Z,8.67
2017-08-25T22:38:14.494Z,9.13
2017-08-25T22:40:42.090Z,7.90
2017-08-25T22:43:09.721Z,8.03
2017-08-25T22:45:37.439Z,7.03
2017-08-25T22:48:05.180Z,5.83
2017-08-25T22:50:32.801Z,12.77
2017-08-25T22:53:00.658Z,6.93
2017-08-25T22:55:28.320Z,9.87
2017-08-25T22:57:56.394Z,8.20
2017-08-25T23:00:24.001Z,8.37
2017-08-25T23:02:51.589Z,6.83
2017-08-25T23:05:19.198Z,9.87
2017-08-25T23:07:46.818Z,7.03
2017-08-25T23:10:14.460Z,8.67
2017-08-25T23:12:42.095Z,6.90
2017-08-25T23:15:09.694Z,7.13
2017-08-25T23:17:37.351Z,8.03
2017-08-25T23:20:04.928Z,12.63
2017-08-25T23:22:32.538Z,8.40
2017-08-25T23:25:00.202Z,6.07
2017-08-25T23:27:27.841Z,5.27
2017-08-25T23:29:55.434Z,11.90
2017-08-25T23:32:23.072Z,7.17
2017-08-25T23:34:50.698Z,7.90
2017-08-25T23:37:18.342Z,9.07
2017-08-25T23:39:46.643Z,9.20
2017-08-25T23:42:14.268Z,7.73
2017-08-25T23:44:41.871Z,6.17
2017-08-25T23:47:09.500Z,9.43
2017-08-25T23:49:37.156Z,7.77
2017-08-25T23:52:05.028Z,8.87
2017-08-25T23:54:32.670Z,9.00
2017-08-25T23:57:00.254Z,11.90
2017-08-25T23:59:27.843Z,9.50
